Time;durP1;ratioP1;P1;durP2;ratioP2;P2;SDS_P1;SDS_P2;PMS_P1;PMS_P2;Temp;Humidity;BMP_temperature;BMP_pressure;BME280_temperature;BME280_humidity;BME280_pressure;Samples;Min_cycle;Max_cycle;Signal;HPM_P1;HPM_P2
2022/03/29 00:01:36;;;;;;;25.87;22.30;;;;;;;6.34;88.00;100201.69;5097514;28;20331;-78
2022/03/29 00:04:04;;;;;;;27.77;22.77;;;;;;;6.24;88.19;100179.25;5097142;28;20200;-78
2022/03/29 00:06:31;;;;;;;30.80;23.93;;;;;;;6.40;87.88;100169.66;5097192;28;20208;-79
2022/03/29 00:08:58;;;;;;;30.53;22.70;;;;;;;6.36;87.83;100183.50;5097447;28;20324;-78
2022/03/29 00:11:24;;;;;;;28.00;22.90;;;;;;;6.48;87.38;100199.00;5097116;28;20289;-79
2022/03/29 00:13:51;;;;;;;29.50;22.53;;;;;;;6.28;87.18;100206.00;5097279;28;20253;-78
2022/03/29 00:16:18;;;;;;;29.73;23.43;;;;;;;6.37;86.38;100200.78;5096982;28;20268;-79
2022/03/29 00:18:44;;;;;;;31.60;23.03;;;;;;;6.49;86.16;100211.06;5097424;28;20201;-79
2022/03/29 00:21:12;;;;;;;29.27;23.97;;;;;;;6.50;85.62;100233.56;5096930;28;20229;-78
2022/03/29 00:23:39;;;;;;;31.43;23.43;;;;;;;6.37;85.99;100231.91;5097075;28;20206;-78
2022/03/29 00:26:05;;;;;;;33.10;24.40;;;;;;;6.42;85.86;100229.28;5097087;28;20625;-79
2022/03/29 00:28:32;;;;;;;30.80;22.93;;;;;;;6.25;85.82;100211.22;5096229;28;20807;-79
2022/03/29 00:30:58;;;;;;;30.47;23.53;;;;;;;6.38;85.64;100219.78;5097051;28;20203;-78
2022/03/29 00:33:25;;;;;;;33.10;24.37;;;;;;;6.39;84.74;100231.91;5097088;28;20300;-79
2022/03/29 00:35:52;;;;;;;31.67;23.93;;;;;;;6.31;85.58;100227.59;5095302;28;20791;-78
2022/03/29 00:38:20;;;;;;;29.77;22.80;;;;;;;6.38;85.62;100228.41;5096823;28;20215;-79
2022/03/29 00:40:47;;;;;;;31.57;23.43;;;;;;;6.38;85.15;100233.59;5096631;28;20297;-79
2022/03/29 00:43:13;;;;;;;36.57;24.47;;;;;;;6.32;85.32;100234.53;5095457;28;20208;-79
2022/03/29 00:45:40;;;;;;;30.67;24.33;;;;;;;6.24;85.39;100225.91;5096587;28;20569;-79
2022/03/29 00:48:08;;;;;;;29.60;23.70;;;;;;;6.29;85.51;100228.50;5097031;28;20242;-79
2022/03/29 00:50:36;;;;;;;28.70;22.60;;;;;;;6.27;85.17;100225.91;5096689;28;20228;-78
2022/03/29 00:53:03;;;;;;;28.80;22.57;;;;;;;6.43;85.00;100236.19;5097330;28;20256;-79
2022/03/29 00:55:31;;;;;;;30.93;23.73;;;;;;;6.40;84.81;100247.41;5096336;28;20260;-79
2022/03/29 00:57:59;;;;;;;30.80;24.40;;;;;;;6.30;85.07;100232.78;5096587;28;20334;-78
2022/03/29 01:00:25;;;;;;;33.97;24.87;;;;;;;6.31;85.21;100227.59;5096390;28;20263;-78
2022/03/29 01:02:53;;;;;;;40.43;27.97;;;;;;;5.94;86.91;100194.03;5096453;28;20557;-78
2022/03/29 01:05:19;;;;;;;35.90;25.73;;;;;;;6.06;86.65;100179.34;5095918;28;20735;-79
2022/03/29 01:07:46;;;;;;;43.13;27.90;;;;;;;5.95;86.79;100169.91;5096164;28;20208;-78
2022/03/29 01:10:12;;;;;;;43.10;28.43;;;;;;;5.66;88.66;100141.50;5095981;28;20232;-79
2022/03/29 01:12:40;;;;;;;45.73;28.07;;;;;;;5.82;88.09;100125.91;5096487;28;20196;-78
2022/03/29 01:15:10;;;;;;;47.63;29.77;;;;;;;5.88;88.15;100118.94;5096192;28;20249;-78
2022/03/29 01:17:39;;;;;;;47.97;29.50;;;;;;;5.71;88.95;100115.59;5095918;28;20207;-78
2022/03/29 01:20:09;;;;;;;48.27;30.43;;;;;;;5.77;88.50;100112.97;5096257;28;20718;-78
2022/03/29 01:22:39;;;;;;;49.83;30.07;;;;;;;5.86;88.20;100122.41;5095814;28;20224;-78
2022/03/29 01:25:08;;;;;;;49.73;30.77;;;;;;;5.94;88.64;100125.81;5095850;28;20208;-79
2022/03/29 01:27:35;;;;;;;48.83;29.70;;;;;;;5.89;88.27;100130.19;5096348;28;20241;-79
2022/03/29 01:30:02;;;;;;;43.33;30.43;;;;;;;6.00;87.48;100124.97;5096365;28;20236;-78
2022/03/29 01:32:29;;;;;;;46.73;30.27;;;;;;;5.85;87.94;100139.69;5095201;28;20200;-78
2022/03/29 01:34:57;;;;;;;53.00;31.00;;;;;;;5.61;89.47;100101.81;5095291;28;20288;-78
2022/03/29 01:37:24;;;;;;;50.53;31.77;;;;;;;5.50;90.25;100073.38;5095542;28;20210;-78
2022/03/29 01:39:52;;;;;;;53.10;31.57;;;;;;;5.52;90.89;100044.91;5095289;28;20250;-78
2022/03/29 01:42:19;;;;;;;54.07;31.43;;;;;;;5.68;90.28;100045.69;5094756;28;20221;-79
2022/03/29 01:44:46;;;;;;;51.30;30.63;;;;;;;5.74;89.84;100068.94;5094785;28;20208;-79
2022/03/29 01:47:12;;;;;;;52.27;31.70;;;;;;;5.72;90.02;100074.13;5094140;28;20723;-78
2022/03/29 01:49:40;;;;;;;55.20;32.10;;;;;;;5.81;89.22;100075.81;5095188;28;20229;-79
2022/03/29 01:52:07;;;;;;;58.10;32.90;;;;;;;5.84;88.82;100085.31;5095476;28;20205;-78
2022/03/29 01:54:34;;;;;;;55.37;32.73;;;;;;;5.84;88.83;100098.25;5097791;28;20253;-78
2022/03/29 01:57:02;;;;;;;57.87;33.03;;;;;;;5.86;89.12;100089.59;5100108;28;20204;-79
2022/03/29 02:00:30;;;;;;;52.27;32.13;;;;;;;5.76;89.45;100090.53;5099820;28;20587;-78
2022/03/29 02:02:15;;;;;;;51.47;31.73;;;;;;;5.92;88.99;100094.75;5099943;28;20219;-78
2022/03/29 02:04:41;;;;;;;57.77;33.27;;;;;;;5.63;90.07;100083.66;5099517;28;20666;-78
2022/03/29 02:07:08;;;;;;;59.90;32.27;;;;;;;5.73;90.24;100068.09;5099723;28;20673;-78
2022/03/29 02:09:34;;;;;;;56.50;33.30;;;;;;;5.65;90.23;100071.56;5099592;28;20278;-79
2022/03/29 02:12:03;;;;;;;63.27;34.63;;;;;;;5.80;89.95;100070.66;5099573;28;20829;-78
2022/03/29 02:14:30;;;;;;;54.93;32.87;;;;;;;5.80;89.57;100075.81;5098938;28;20209;-78
2022/03/29 02:16:56;;;;;;;51.07;33.00;;;;;;;5.88;89.52;100072.31;5099857;28;20250;-78
2022/03/29 02:19:22;;;;;;;59.33;33.40;;;;;;;5.84;89.94;100073.19;5100115;28;20250;-78
2022/03/29 02:21:49;;;;;;;52.40;32.77;;;;;;;5.89;89.49;100066.28;5099299;28;20226;-78
2022/03/29 02:24:15;;;;;;;58.43;32.80;;;;;;;5.96;90.17;100073.16;5099109;28;20204;-79
2022/03/29 02:26:42;;;;;;;50.70;30.97;;;;;;;5.86;89.66;100070.63;5099600;28;20204;-79
2022/03/29 02:29:10;;;;;;;50.40;30.50;;;;;;;5.84;90.00;100072.34;5099541;28;20855;-79
2022/03/29 02:31:37;;;;;;;54.70;33.50;;;;;;;5.83;89.86;100078.38;5099392;28;20211;-78
2022/03/29 02:34:03;;;;;;;50.70;31.47;;;;;;;5.92;89.08;100078.34;5099184;28;20209;-78
2022/03/29 02:36:31;;;;;;;50.13;31.53;;;;;;;5.75;90.23;100073.28;5098405;28;20291;-78
2022/03/29 02:38:57;;;;;;;53.27;32.10;;;;;;;5.87;90.21;100059.41;5099474;28;20275;-79
2022/03/29 02:41:24;;;;;;;51.93;30.67;;;;;;;6.04;90.17;100059.31;5099804;28;20266;-78
2022/03/29 02:43:50;;;;;;;51.83;31.47;;;;;;;6.15;89.46;100079.09;5099544;28;20208;-78
2022/03/29 02:46:19;;;;;;;50.43;30.40;;;;;;;6.26;88.54;100081.59;5099078;28;20565;-78
2022/03/29 02:48:45;;;;;;;45.23;28.83;;;;;;;6.18;88.38;100098.09;5099153;28;20206;-79
2022/03/29 02:51:12;;;;;;;45.23;28.97;;;;;;;6.16;88.60;100105.88;5099239;28;20250;-79
2022/03/29 02:53:38;;;;;;;43.13;28.20;;;;;;;6.19;88.91;100112.78;5099225;28;20205;-77
2022/03/29 02:56:05;;;;;;;41.93;28.93;;;;;;;6.31;88.21;100118.72;5099247;28;20209;-78
2022/03/29 02:58:31;;;;;;;47.73;29.63;;;;;;;6.33;88.16;100129.94;5099540;28;20203;-79
2022/03/29 03:00:58;;;;;;;40.33;27.77;;;;;;;6.28;87.34;100136.91;5099105;28;20250;-79
2022/03/29 03:03:26;;;;;;;34.57;26.17;;;;;;;6.23;87.69;100141.25;5099403;28;20227;-79
2022/03/29 03:05:53;;;;;;;35.77;25.43;;;;;;;6.06;87.22;100149.09;5097476;28;20231;-78
2022/03/29 03:08:19;;;;;;;44.17;29.23;;;;;;;5.91;88.08;100134.47;5098791;28;20916;-79
2022/03/29 03:10:45;;;;;;;43.80;29.10;;;;;;;5.81;88.34;100127.63;5099882;28;20274;-78
2022/03/29 03:13:12;;;;;;;47.63;29.30;;;;;;;5.86;88.54;100107.72;5099217;28;20601;-79
2022/03/29 03:15:38;;;;;;;43.87;28.73;;;;;;;5.91;87.77;100120.69;5098899;28;20765;-78
2022/03/29 03:18:05;;;;;;;47.93;29.53;;;;;;;5.97;87.99;100113.75;5099263;28;20566;-79
2022/03/29 03:20:33;;;;;;;52.17;31.00;;;;;;;6.05;87.49;100126.66;5098946;28;20225;-79
2022/03/29 03:22:59;;;;;;;44.43;28.03;;;;;;;6.00;87.78;100141.38;5098602;28;20232;-79
2022/03/29 03:25:26;;;;;;;46.00;29.07;;;;;;;5.93;87.47;100140.50;5098431;28;20231;-78
2022/03/29 03:27:52;;;;;;;47.77;30.07;;;;;;;5.97;87.42;100134.47;5099160;28;20215;-79
2022/03/29 03:30:18;;;;;;;47.40;29.03;;;;;;;6.12;87.12;100137.84;5098668;28;20218;-79
2022/03/29 03:32:46;;;;;;;46.03;29.73;;;;;;;6.04;87.15;100157.75;5098397;28;20260;-77
2022/03/29 03:35:13;;;;;;;42.90;28.73;;;;;;;6.15;87.01;100156.00;5097646;28;20291;-79
2022/03/29 03:37:41;;;;;;;36.30;28.67;;;;;;;6.27;86.49;100155.91;5098300;28;20681;-80
2022/03/29 03:40:10;;;;;;;41.53;28.10;;;;;;;6.20;86.29;100166.31;5097931;28;20228;-79
2022/03/29 03:42:37;;;;;;;43.77;27.97;;;;;;;6.27;86.21;100165.44;5098768;28;20257;-79
2022/03/29 03:45:05;;;;;;;42.53;29.27;;;;;;;6.30;85.99;100162.78;5098414;28;20209;-79
2022/03/29 03:47:32;;;;;;;45.60;29.37;;;;;;;6.35;85.96;100163.66;5098269;28;20237;-79
2022/03/29 03:49:58;;;;;;;43.33;28.93;;;;;;;6.36;85.87;100170.53;5097769;28;20894;-79
2022/03/29 03:52:25;;;;;;;38.40;28.17;;;;;;;6.35;85.10;100181.78;5097721;28;20262;-78
2022/03/29 03:54:54;;;;;;;48.83;29.77;;;;;;;6.29;85.43;100172.31;5098377;28;20211;-80
2022/03/29 03:57:21;;;;;;;42.80;28.07;;;;;;;6.36;85.65;100179.19;5098321;28;20205;-79
2022/03/29 03:59:48;;;;;;;41.27;28.27;;;;;;;6.39;84.67;100190.41;5097634;28;20221;-79
2022/03/29 04:02:14;;;;;;;38.10;27.73;;;;;;;6.18;84.93;100188.78;5097944;28;20231;-79
2022/03/29 04:04:41;;;;;;;44.70;29.53;;;;;;;6.28;85.35;100178.38;5098167;28;20213;-79
2022/03/29 04:07:07;;;;;;;46.20;29.83;;;;;;;6.22;85.77;100175.78;5098118;28;20290;-79
2022/03/29 04:09:35;;;;;;;45.27;28.90;;;;;;;6.08;85.73;100165.50;5098057;28;20234;-79
2022/03/29 04:12:03;;;;;;;47.53;29.20;;;;;;;6.07;86.47;100140.47;5097611;28;20215;-79
2022/03/29 04:14:30;;;;;;;45.63;29.07;;;;;;;6.07;86.17;100132.72;5097575;28;20264;-79
2022/03/29 04:16:56;;;;;;;45.47;30.93;;;;;;;5.77;87.29;100125.91;5097835;28;20808;-79
2022/03/29 04:19:23;;;;;;;54.53;31.33;;;;;;;5.77;88.01;100090.50;5097591;28;20251;-78
2022/03/29 04:21:49;;;;;;;44.63;30.33;;;;;;;5.79;88.02;100072.38;5096914;28;20221;-77
2022/03/29 04:24:16;;;;;;;48.57;31.47;;;;;;;5.84;87.96;100075.78;5096611;28;20228;-79
2022/03/29 04:26:43;;;;;;;49.77;29.93;;;;;;;5.78;88.28;100081.00;5097256;28;20200;-79
2022/03/29 04:29:11;;;;;;;50.43;30.67;;;;;;;5.76;88.66;100064.63;5097057;28;20230;-79
2022/03/29 04:31:37;;;;;;;57.83;32.40;;;;;;;5.61;89.30;100033.63;5096741;28;20197;-79
2022/03/29 04:34:05;;;;;;;49.43;32.33;;;;;;;5.51;90.18;100019.88;5096812;28;20209;-79
2022/03/29 04:36:32;;;;;;;54.33;32.13;;;;;;;5.44;91.29;99987.97;5097277;28;20299;-77
2022/03/29 04:38:58;;;;;;;51.73;33.73;;;;;;;5.41;91.86;99977.66;5096826;28;20628;-79
2022/03/29 04:41:25;;;;;;;59.80;33.87;;;;;;;5.44;92.17;99961.25;5096241;28;20266;-79
2022/03/29 04:43:51;;;;;;;63.43;34.03;;;;;;;5.53;91.71;99953.41;5095242;28;20227;-79
2022/03/29 04:46:19;;;;;;;62.17;35.73;;;;;;;5.52;91.46;99954.28;5095904;28;20205;-79
2022/03/29 04:48:46;;;;;;;63.33;34.27;;;;;;;5.44;92.06;99945.72;5096706;28;20205;-77
2022/03/29 04:51:12;;;;;;;62.27;35.57;;;;;;;5.50;92.74;99932.72;5095492;28;20200;-77
2022/03/29 04:53:39;;;;;;;59.77;34.23;;;;;;;5.42;92.79;99944.88;5094600;28;20204;-77
2022/03/29 04:56:05;;;;;;;57.00;34.40;;;;;;;5.40;92.59;99942.28;5095184;28;20212;-80
2022/03/29 04:58:32;;;;;;;57.43;32.47;;;;;;;5.53;91.86;99932.69;5095523;28;20209;-79
2022/03/29 05:00:59;;;;;;;56.80;32.33;;;;;;;5.55;90.86;99954.28;5096530;28;20690;-77
2022/03/29 05:03:27;;;;;;;51.57;31.00;;;;;;;5.48;90.45;99973.31;5096219;28;20224;-79
2022/03/29 05:05:54;;;;;;;48.77;31.50;;;;;;;5.49;90.27;99981.06;5095072;28;20552;-78
2022/03/29 05:08:21;;;;;;;54.13;30.67;;;;;;;5.52;90.20;99986.22;5096263;28;20258;-78
2022/03/29 05:10:48;;;;;;;48.20;28.90;;;;;;;5.50;89.95;99992.28;5096250;28;20220;-79
2022/03/29 05:13:16;;;;;;;45.33;28.80;;;;;;;5.51;90.05;99999.16;5096281;28;20200;-79
2022/03/29 05:15:42;;;;;;;45.13;28.57;;;;;;;5.35;90.01;99988.91;5095618;28;20215;-79
2022/03/29 05:18:09;;;;;;;46.47;28.67;;;;;;;5.44;90.29;99972.44;5095317;28;20204;-79
2022/03/29 05:20:37;;;;;;;49.53;29.70;;;;;;;5.51;90.24;99976.75;5096120;28;20784;-79
2022/03/29 05:23:06;;;;;;;48.97;29.63;;;;;;;5.63;90.03;99986.16;5096052;28;20220;-79
2022/03/29 05:25:34;;;;;;;45.97;28.33;;;;;;;5.78;89.33;99999.00;5095657;28;20555;-79
2022/03/29 05:28:01;;;;;;;47.27;28.27;;;;;;;5.90;89.28;100023.94;5095861;28;20276;-79
2022/03/29 05:30:27;;;;;;;45.43;27.90;;;;;;;5.92;88.43;100039.50;5095319;28;20225;-78
2022/03/29 05:32:57;;;;;;;44.87;28.80;;;;;;;5.69;88.62;100050.84;5087221;28;20253;-79
2022/03/29 05:35:26;;;;;;;36.90;25.67;;;;;;;5.49;88.54;100037.13;5085937;28;20260;-78
2022/03/29 05:37:53;;;;;;;39.97;26.77;;;;;;;5.58;89.19;100030.19;5084485;28;20305;-77
2022/03/29 05:40:20;;;;;;;37.87;26.10;;;;;;;5.64;88.76;100031.03;5083582;28;20490;-78
2022/03/29 05:42:46;;;;;;;34.90;26.10;;;;;;;5.69;88.38;100049.97;5086007;28;20279;-78
2022/03/29 05:45:14;;;;;;;40.17;26.10;;;;;;;5.67;88.40;100055.19;5084605;28;20198;-78
2022/03/29 05:50:27;;;;;;;30.60;24.70;;;;;;;5.75;88.05;100065.50;5083798;28;20283;-78
2022/03/29 05:52:55;;;;;;;35.40;24.87;;;;;;;5.84;87.68;100075.78;5085113;28;20238;-79
2022/03/29 05:55:22;;;;;;;30.93;22.90;;;;;;;5.91;87.24;100085.25;5085891;28;20278;-78
2022/03/29 05:57:49;;;;;;;36.53;25.53;;;;;;;5.73;87.32;100095.72;5084716;28;20199;-78
2022/03/29 06:00:17;;;;;;;36.10;23.60;;;;;;;5.63;87.91;100086.25;5088625;28;20567;-78
2022/03/29 06:02:44;;;;;;;33.87;24.03;;;;;;;5.45;88.83;100059.59;5084523;28;20244;-78
2022/03/29 06:05:10;;;;;;;36.60;24.63;;;;;;;5.52;89.32;100037.13;5084348;28;20204;-78
2022/03/29 06:07:37;;;;;;;34.97;24.07;;;;;;;5.72;88.71;100034.44;5085666;28;20201;-78
2022/03/29 06:10:06;;;;;;;36.83;24.67;;;;;;;5.72;88.27;100070.69;5085008;28;20705;-78
2022/03/29 06:12:33;;;;;;;40.37;25.13;;;;;;;5.50;87.96;100075.09;5083703;28;20255;-78
2022/03/29 06:15:02;;;;;;;34.03;25.00;;;;;;;5.45;89.09;100061.31;5088761;28;20205;-77
2022/03/29 06:17:29;;;;;;;38.77;24.53;;;;;;;5.59;88.41;100062.13;5094666;28;20210;-78
2022/03/29 06:19:55;;;;;;;37.70;24.17;;;;;;;5.57;88.18;100074.22;5095409;28;20229;-78
2022/03/29 06:22:22;;;;;;;34.60;24.40;;;;;;;5.58;88.08;100081.97;5095007;28;20235;-79
2022/03/29 06:24:49;;;;;;;39.27;25.57;;;;;;;5.53;87.48;100095.78;5094466;28;20232;-78
2022/03/29 06:27:16;;;;;;;38.20;24.80;;;;;;;5.63;86.40;100113.03;5094140;28;20213;-78
2022/03/29 06:29:43;;;;;;;46.63;26.30;;;;;;;5.75;85.64;100140.59;5094238;28;20230;-76
2022/03/29 06:32:09;;;;;;;46.10;27.60;;;;;;;5.81;85.29;100170.78;5093338;28;20202;-77
2022/03/29 06:34:36;;;;;;;45.80;27.47;;;;;;;5.81;84.28;100194.09;5093555;28;20211;-77
2022/03/29 06:37:03;;;;;;;42.03;25.60;;;;;;;5.81;83.15;100218.28;5094069;28;20735;-79
2022/03/29 06:39:30;;;;;;;35.80;23.47;;;;;;;5.79;82.38;100251.09;5094274;28;20229;-78
2022/03/29 06:41:57;;;;;;;44.43;26.30;;;;;;;5.72;82.47;100249.38;5098472;28;20201;-79
2022/03/29 06:44:25;;;;;;;38.03;25.03;;;;;;;5.81;82.61;100251.94;5098247;28;20225;-79
2022/03/29 06:46:52;;;;;;;38.57;25.07;;;;;;;5.90;81.69;100262.25;5098896;28;20208;-79
2022/03/29 06:49:18;;;;;;;39.97;24.47;;;;;;;5.96;81.45;100274.38;5099654;28;20237;-79
2022/03/29 06:51:47;;;;;;;34.53;24.53;;;;;;;5.97;81.74;100268.34;5099453;28;20207;-79
2022/03/29 06:54:15;;;;;;;41.67;25.77;;;;;;;6.13;81.61;100259.66;5097756;28;20207;-78
2022/03/29 06:56:41;;;;;;;35.00;24.47;;;;;;;5.98;81.90;100277.81;5098400;28;20231;-76
2022/03/29 06:59:08;;;;;;;35.10;24.50;;;;;;;5.99;82.94;100255.41;5084559;28;20273;-76
2022/03/29 07:01:37;;;;;;;38.77;23.73;;;;;;;5.93;82.77;100241.53;5098198;28;20266;-78
2022/03/29 07:04:04;;;;;;;34.93;23.33;;;;;;;6.09;82.68;100241.53;5097685;28;20227;-78
2022/03/29 07:06:31;;;;;;;31.80;23.07;;;;;;;6.04;82.51;100241.53;5091705;28;20203;-78
2022/03/29 07:11:42;;;;;;;29.33;22.47;;;;;;;6.12;81.91;100234.59;5085735;28;20212;-77
2022/03/29 07:14:09;;;;;;;36.53;24.17;;;;;;;6.13;80.92;100262.22;5086750;28;20193;-78
2022/03/29 07:16:38;;;;;;;34.30;24.70;;;;;;;6.11;79.96;100307.16;5089087;28;20201;-78
2022/03/29 07:19:04;;;;;;;40.67;25.03;;;;;;;6.20;80.13;100314.91;5098178;28;20281;-77
2022/03/29 07:21:33;;;;;;;33.57;24.80;;;;;;;6.11;79.68;100328.75;5096926;28;20620;-78
2022/03/29 07:23:59;;;;;;;43.87;25.97;;;;;;;6.15;79.25;100324.44;5097633;28;20226;-77
2022/03/29 07:26:25;;;;;;;34.03;24.07;;;;;;;6.18;79.46;100336.50;5096851;28;20201;-77
2022/03/29 07:28:52;;;;;;;35.30;24.23;;;;;;;6.25;78.29;100340.81;5098849;28;20632;-79
2022/03/29 07:31:18;;;;;;;44.13;25.10;;;;;;;6.29;79.17;100339.94;5099901;28;20210;-78
2022/03/29 07:33:46;;;;;;;39.70;24.43;;;;;;;6.21;78.71;100342.56;5099286;28;20216;-77
2022/03/29 07:36:12;;;;;;;34.87;25.97;;;;;;;6.30;78.46;100341.66;5099290;28;20205;-78
2022/03/29 07:38:39;;;;;;;35.57;23.40;;;;;;;6.30;78.94;100331.28;5100314;28;20205;-77
2022/03/29 07:41:05;;;;;;;39.60;25.27;;;;;;;6.43;78.66;100332.13;5098585;28;20208;-78
2022/03/29 07:43:32;;;;;;;40.90;25.63;;;;;;;6.51;78.32;100345.91;5098252;28;20277;-77
2022/03/29 07:45:59;;;;;;;39.67;25.23;;;;;;;6.57;78.46;100346.75;5098218;28;20209;-80
2022/03/29 07:48:25;;;;;;;44.30;26.97;;;;;;;6.58;78.99;100337.25;5097347;28;20210;-80
2022/03/29 07:50:53;;;;;;;41.63;26.73;;;;;;;6.62;78.32;100338.97;5098736;28;20619;-79
2022/03/29 07:53:22;;;;;;;43.53;27.53;;;;;;;6.51;78.74;100322.56;5098776;28;20206;-79
2022/03/29 07:55:50;;;;;;;42.00;27.10;;;;;;;6.60;78.46;100334.63;5098203;28;20236;-80
2022/03/29 07:58:17;;;;;;;41.70;26.70;;;;;;;6.70;78.46;100344.09;5098807;28;20276;-80
2022/03/29 08:00:44;;;;;;;44.23;26.33;;;;;;;6.73;77.74;100360.50;5097341;28;20225;-80
2022/03/29 08:03:12;;;;;;;36.87;26.40;;;;;;;6.57;77.14;100383.03;5098163;28;20234;-78
2022/03/29 08:05:41;;;;;;;36.93;26.77;;;;;;;6.61;77.26;100375.28;5097456;28;20583;-78
2022/03/29 08:08:10;;;;;;;44.87;28.13;;;;;;;6.52;77.61;100361.47;5098383;28;20210;-80
2022/03/29 08:10:36;;;;;;;42.00;27.50;;;;;;;6.67;77.17;100360.53;5098221;28;20246;-78
2022/03/29 08:13:06;;;;;;;49.60;27.67;;;;;;;6.81;76.77;100355.28;5097743;28;20196;-80
2022/03/29 08:15:33;;;;;;;46.83;29.73;;;;;;;6.83;77.63;100352.69;5089010;28;20260;-80
2022/03/29 08:18:00;;;;;;;45.60;28.63;;;;;;;6.99;76.30;100361.25;5085926;28;20197;-80
2022/03/29 08:20:27;;;;;;;44.17;29.10;;;;;;;7.08;76.00;100377.63;5095290;28;20347;-80
2022/03/29 08:22:58;;;;;;;44.00;28.03;;;;;;;7.09;75.33;100399.25;5096998;28;20247;-80
2022/03/29 08:25:27;;;;;;;40.73;27.10;;;;;;;6.86;75.93;100409.78;5097914;28;20707;-80
2022/03/29 08:27:56;;;;;;;44.60;28.67;;;;;;;6.98;75.61;100407.13;5097751;28;20248;-80
2022/03/29 08:30:23;;;;;;;38.33;27.03;;;;;;;6.85;75.18;100421.84;5097639;28;20334;-80
2022/03/29 08:32:50;;;;;;;48.63;28.60;;;;;;;6.82;75.56;100406.31;5097745;28;20248;-80
2022/03/29 08:35:16;;;;;;;45.10;27.93;;;;;;;6.92;75.96;100400.22;5097597;28;20271;-80
2022/03/29 08:37:43;;;;;;;42.03;26.83;;;;;;;6.80;75.84;100412.34;5096300;28;20717;-80
2022/03/29 08:40:13;;;;;;;44.53;26.17;;;;;;;6.80;75.51;100417.53;5096852;28;20219;-79
2022/03/29 08:42:43;;;;;;;37.07;25.03;;;;;;;6.87;74.31;100425.31;5096167;28;20200;-77
2022/03/29 08:45:10;;;;;;;37.83;25.40;;;;;;;6.76;74.53;100433.13;5096092;28;20225;-80
2022/03/29 08:47:37;;;;;;;48.73;27.40;;;;;;;6.85;75.01;100426.19;5097528;28;20261;-81
2022/03/29 08:50:05;;;;;;;55.47;29.97;;;;;;;6.84;74.20;100434.81;5095954;28;20274;-80
2022/03/29 08:52:32;;;;;;;46.43;28.07;;;;;;;6.86;73.68;100454.72;5097933;28;20209;-80
2022/03/29 08:55:01;;;;;;;48.97;29.83;;;;;;;6.83;73.33;100459.91;5096472;28;20200;-80
2022/03/29 08:57:27;;;;;;;40.70;27.73;;;;;;;6.70;74.65;100445.25;5096106;28;20212;-78
2022/03/29 08:59:55;;;;;;;49.00;29.50;;;;;;;6.68;75.05;100426.22;5095357;28;20301;-80
2022/03/29 09:02:22;;;;;;;49.43;30.00;;;;;;;6.82;74.74;100431.38;5094041;28;20253;-78
2022/03/29 09:05:07;;;;;;;52.83;30.23;;;;;;;6.83;74.11;100431.38;5093969;28;20222;-78
2022/03/29 09:07:47;;;;;;;46.83;28.83;;;;;;;6.96;74.17;100430.47;5094188;28;20633;-78
2022/03/29 09:10:14;;;;;;;48.40;31.40;;;;;;;7.11;74.62;100415.69;5094107;28;20753;-78
2022/03/29 09:12:41;;;;;;;45.07;28.00;;;;;;;6.98;74.81;100414.91;5075175;28;20197;-78
2022/03/29 09:15:09;;;;;;;54.93;29.90;;;;;;;6.96;74.63;100407.13;5074399;28;20670;-78
2022/03/29 09:17:38;;;;;;;46.50;29.73;;;;;;;7.00;73.89;100418.34;5074616;28;20243;-78
2022/03/29 09:20:07;;;;;;;52.23;30.53;;;;;;;7.09;73.79;100431.25;5074998;28;20897;-78
2022/03/29 09:22:40;;;;;;;54.83;31.37;;;;;;;7.11;74.34;100423.47;5089289;28;20292;-78
2022/03/29 09:25:08;;;;;;;49.63;30.90;;;;;;;6.93;73.02;100440.84;5094300;28;20221;-78
2022/03/29 09:27:56;;;;;;;52.07;30.90;;;;;;;7.03;72.98;100440.81;5094665;28;20209;-78
2022/03/29 09:30:25;;;;;;;56.37;30.73;;;;;;;7.03;74.06;100430.44;5095346;28;20228;-78
2022/03/29 09:33:04;;;;;;;47.57;30.20;;;;;;;7.32;73.97;100419.91;5094304;28;20214;-78
2022/03/29 09:35:31;;;;;;;47.03;29.90;;;;;;;7.16;73.72;100438.16;5094501;28;20197;-78
2022/03/29 09:37:58;;;;;;;52.67;31.17;;;;;;;7.43;73.73;100446.66;5093640;28;20543;-78
2022/03/29 09:40:38;;;;;;;48.93;28.80;;;;;;;6.95;73.46;100433.91;5094063;28;20228;-78
2022/03/29 09:43:07;;;;;;;48.40;27.67;;;;;;;7.28;74.25;100411.28;5093932;28;20300;-79
2022/03/29 09:45:44;;;;;;;49.10;27.87;;;;;;;7.21;73.10;100437.28;5093230;28;20228;-78
2022/03/29 09:48:25;;;;;;;49.23;28.90;;;;;;;7.19;73.59;100420.84;5094207;28;20264;-78
2022/03/29 09:50:54;;;;;;;45.43;26.13;;;;;;;7.34;73.41;100421.63;5093814;28;20337;-78
2022/03/29 09:53:41;;;;;;;42.27;27.30;;;;;;;7.09;74.18;100407.91;5092814;28;20213;-78
2022/03/29 09:56:11;;;;;;;33.70;25.20;;;;;;;7.24;74.12;100400.91;5093406;28;20651;-78
2022/03/29 09:58:38;;;;;;;36.73;25.20;;;;;;;7.19;73.71;100420.84;5093438;28;20212;-76
2022/03/29 10:01:07;;;;;;;32.70;23.87;;;;;;;6.99;74.22;100423.53;5093250;28;20201;-76
2022/03/29 10:03:35;;;;;;;37.87;24.50;;;;;;;7.27;72.94;100419.91;5092336;28;20210;-78
2022/03/29 10:06:04;;;;;;;35.97;23.93;;;;;;;7.52;72.33;100444.00;5093623;28;20260;-79
2022/03/29 10:11:21;;;;;;;32.73;24.20;;;;;;;7.71;70.56;100498.44;5093528;28;20681;-78
2022/03/29 10:13:48;;;;;;;36.67;23.97;;;;;;;7.93;70.25;100515.63;5093432;28;20206;-78
2022/03/29 10:16:17;;;;;;;35.17;23.60;;;;;;;7.86;69.95;100537.31;5096757;28;20206;-76
2022/03/29 10:18:45;;;;;;;36.13;23.50;;;;;;;7.98;69.43;100525.13;5096894;28;20207;-78
2022/03/29 10:21:13;;;;;;;30.57;23.47;;;;;;;7.99;69.56;100529.44;5097560;28;20198;-80
2022/03/29 10:23:42;;;;;;;31.17;23.40;;;;;;;8.03;69.88;100534.63;5103697;28;20221;-79
2022/03/29 10:26:10;;;;;;;32.83;23.03;;;;;;;7.94;69.33;100532.94;5100431;22;20712;-73
2022/03/29 10:28:37;;;;;;;31.23;23.87;;;;;;;8.07;69.78;100528.53;5073871;28;20265;-73
2022/03/29 10:31:04;;;;;;;31.67;22.53;;;;;;;7.70;69.96;100522.72;5072302;28;20204;-73
2022/03/29 10:33:33;;;;;;;38.60;23.93;;;;;;;7.96;71.07;100487.00;5070441;28;20733;-73
2022/03/29 10:36:08;;;;;;;28.77;22.60;;;;;;;8.33;68.74;100506.66;5074514;28;20659;-73
2022/03/29 10:38:57;;;;;;;26.70;21.63;;;;;;;8.28;67.81;100552.63;5074786;28;20674;-74
2022/03/29 10:41:49;;;;;;;31.37;22.93;;;;;;;8.23;68.09;100555.28;5074910;28;20202;-73
2022/03/29 10:44:16;;;;;;;34.43;22.63;;;;;;;8.47;67.60;100566.41;5074813;28;20236;-73
2022/03/29 10:46:45;;;;;;;32.67;22.73;;;;;;;8.42;68.17;100562.97;5075014;28;20234;-73
2022/03/29 10:49:21;;;;;;;32.00;24.03;;;;;;;8.45;67.42;100556.00;5074850;28;20315;-73
2022/03/29 10:51:48;;;;;;;27.13;22.10;;;;;;;8.37;66.90;100578.59;5075003;28;20214;-74
2022/03/29 10:54:26;;;;;;;32.67;23.30;;;;;;;8.32;66.73;100581.22;5074542;28;20208;-74
2022/03/29 10:56:57;;;;;;;38.13;24.30;;;;;;;8.14;66.70;100583.94;5074567;28;20618;-74
2022/03/29 10:59:24;;;;;;;32.17;24.20;;;;;;;8.58;67.70;100561.09;5074522;28;20317;-74
2022/03/29 11:02:09;;;;;;;33.97;22.93;;;;;;;8.90;65.50;100584.22;5074583;28;20253;-74
2022/03/29 11:04:37;;;;;;;34.60;24.73;;;;;;;8.79;64.71;100614.69;5073906;28;20641;-74
2022/03/29 11:07:14;;;;;;;36.03;25.93;;;;;;;8.54;66.39;100609.69;5074222;28;20259;-73
2022/03/29 11:09:44;;;;;;;36.53;25.33;;;;;;;8.86;66.33;100577.31;5074368;28;20223;-74
2022/03/29 11:12:37;;;;;;;38.80;26.97;;;;;;;9.23;64.75;100598.63;5074796;28;20210;-74
2022/03/29 11:15:48;;;;;;;42.80;26.27;;;;;;;9.48;64.17;100643.53;5073848;28;20201;-74
2022/03/29 11:18:47;;;;;;;37.67;26.40;;;;;;;9.49;62.60;100668.72;5074293;28;20294;-74
2022/03/29 11:21:40;;;;;;;43.63;27.47;;;;;;;9.17;63.75;100662.94;5074160;28;20209;-74
2022/03/29 11:24:13;;;;;;;42.33;28.83;;;;;;;9.26;62.94;100676.75;5068555;28;20675;-74
2022/03/29 11:26:54;;;;;;;41.10;28.37;;;;;;;8.97;63.55;100673.56;5072868;28;20582;-75
2022/03/29 11:29:21;;;;;;;46.40;29.70;;;;;;;8.61;65.16;100620.94;5073425;28;20220;-74
2022/03/29 11:31:50;;;;;;;40.90;28.70;;;;;;;8.71;65.14;100612.16;5073820;28;20676;-74